Time;durP1;ratioP1;P1;durP2;ratioP2;P2;SDS_P1;SDS_P2;PMS_P1;PMS_P2;Temp;Humidity;BMP_temperature;BMP_pressure;BME280_temperature;BME280_humidity;BME280_pressure;Samples;Min_cycle;Max_cycle;Signal;HPM_P1;HPM_P2
2023/10/26 00:00:49;;;;;;;9.10;8.30;;;9.40;99.90;;;;;;5003602;28;20468;-56
2023/10/26 00:03:15;;;;;;;12.10;8.90;;;9.40;99.90;;;;;;4994186;28;20484;-56
2023/10/26 00:05:42;;;;;;;8.50;7.70;;;9.40;99.90;;;;;;4999122;28;20883;-57
2023/10/26 00:08:10;;;;;;;10.93;8.87;;;9.30;99.90;;;;;;5013316;28;20815;-57
2023/10/26 00:10:39;;;;;;;9.33;8.27;;;9.40;99.90;;;;;;5009114;28;20517;-56
2023/10/26 00:13:06;;;;;;;9.30;8.47;;;9.30;99.90;;;;;;5003179;28;20976;-58
2023/10/26 00:15:32;;;;;;;11.50;8.60;;;9.30;99.90;;;;;;5012657;28;20451;-58
2023/10/26 00:17:59;;;;;;;9.20;8.40;;;9.30;99.90;;;;;;5010479;28;20476;-58
2023/10/26 00:20:26;;;;;;;16.03;8.93;;;9.30;99.90;;;;;;5011362;28;20503;-57
2023/10/26 00:22:52;;;;;;;10.70;9.70;;;9.40;99.90;;;;;;5012632;28;20537;-57
2023/10/26 00:25:20;;;;;;;9.37;8.47;;;9.40;99.90;;;;;;5012956;28;20439;-58
2023/10/26 00:27:47;;;;;;;10.27;8.40;;;9.40;99.90;;;;;;5012078;28;20443;-57
2023/10/26 00:30:13;;;;;;;12.30;8.40;;;9.40;99.90;;;;;;4992954;28;20511;-57
2023/10/26 00:32:41;;;;;;;9.80;8.90;;;9.40;99.90;;;;;;5001781;28;20806;-58
2023/10/26 00:35:08;;;;;;;9.70;8.70;;;9.40;99.90;;;;;;5007838;28;20466;-57
2023/10/26 00:37:34;;;;;;;10.40;8.50;;;9.40;99.90;;;;;;5004413;28;20461;-56
2023/10/26 00:40:01;;;;;;;9.87;8.33;;;9.40;99.90;;;;;;5007546;28;20534;-57
2023/10/26 00:42:30;;;;;;;9.87;8.80;;;9.30;99.90;;;;;;5009057;28;20549;-57
2023/10/26 00:44:57;;;;;;;10.63;9.40;;;9.30;99.90;;;;;;4994145;28;20735;-57
2023/10/26 00:47:25;;;;;;;14.93;8.60;;;9.30;99.90;;;;;;5008296;28;20486;-57
2023/10/26 00:49:52;;;;;;;16.03;9.03;;;9.30;99.90;;;;;;5012592;28;20452;-58
2023/10/26 00:52:19;;;;;;;10.67;8.83;;;9.30;99.90;;;;;;5011751;28;20934;-57
2023/10/26 00:54:46;;;;;;;15.87;9.00;;;9.30;99.90;;;;;;5012166;28;20495;-56
2023/10/26 00:57:15;;;;;;;15.67;9.50;;;9.30;99.90;;;;;;5006689;28;20985;-57
2023/10/26 00:59:45;;;;;;;17.83;9.20;;;9.30;99.90;;;;;;5008975;28;20945;-57
2023/10/26 01:02:13;;;;;;;11.27;9.40;;;9.30;99.90;;;;;;5007023;28;20487;-56
2023/10/26 01:04:40;;;;;;;8.90;8.10;;;9.30;99.90;;;;;;5010559;28;20460;-57
2023/10/26 01:07:06;;;;;;;10.30;9.10;;;9.30;99.90;;;;;;5011468;28;20509;-56
2023/10/26 01:09:33;;;;;;;12.90;8.47;;;9.30;99.90;;;;;;5012159;28;20435;-56
2023/10/26 01:12:01;;;;;;;10.00;8.90;;;9.20;99.90;;;;;;5012342;28;20806;-57
2023/10/26 01:14:28;;;;;;;8.77;7.87;;;9.30;99.90;;;;;;5009960;28;20820;-57
2023/10/26 01:16:56;;;;;;;19.20;8.07;;;9.20;99.90;;;;;;5010909;28;20453;-57
2023/10/26 01:19:37;;;;;;;14.03;8.30;;;9.20;99.90;;;;;;4998946;28;20436;-57
2023/10/26 01:22:05;;;;;;;8.70;8.00;;;9.20;99.90;;;;;;5006371;28;21077;-56
2023/10/26 01:24:32;;;;;;;9.43;7.73;;;9.30;99.90;;;;;;5011334;28;20827;-57
2023/10/26 01:26:58;;;;;;;17.60;8.23;;;9.20;99.90;;;;;;4994312;28;21324;-56
2023/10/26 01:29:25;;;;;;;8.63;7.57;;;9.20;99.90;;;;;;5011514;28;20445;-57
2023/10/26 01:31:51;;;;;;;8.87;8.07;;;9.20;99.90;;;;;;4994598;28;20874;-57
2023/10/26 01:34:18;;;;;;;10.40;8.43;;;9.20;99.90;;;;;;4993203;28;20464;-56
2023/10/26 01:36:45;;;;;;;12.90;8.73;;;9.20;99.90;;;;;;5009794;28;20464;-56
2023/10/26 01:39:13;;;;;;;10.80;7.90;;;9.20;99.90;;;;;;5006314;28;20531;-56
2023/10/26 01:41:39;;;;;;;12.53;8.87;;;9.20;99.90;;;;;;5008050;28;20487;-57
2023/10/26 01:44:06;;;;;;;10.37;8.30;;;9.20;99.90;;;;;;5009228;28;20538;-56
2023/10/26 01:46:33;;;;;;;8.43;7.53;;;9.20;99.90;;;;;;4999685;28;20518;-57
2023/10/26 01:49:01;;;;;;;9.60;8.30;;;9.20;99.90;;;;;;5012125;28;20522;-57
2023/10/26 01:51:27;;;;;;;10.47;7.93;;;9.20;99.90;;;;;;5011318;28;20470;-57
2023/10/26 01:53:54;;;;;;;11.83;7.73;;;9.20;99.90;;;;;;5008224;28;20550;-56
2023/10/26 01:56:22;;;;;;;10.10;9.00;;;9.20;99.90;;;;;;5011955;28;20451;-57
2023/10/26 01:58:48;;;;;;;8.93;8.10;;;9.20;99.90;;;;;;5010209;28;20514;-56
2023/10/26 02:01:15;;;;;;;8.63;7.83;;;9.20;99.90;;;;;;5011832;28;20526;-58
2023/10/26 02:03:42;;;;;;;11.40;8.63;;;9.20;99.90;;;;;;5010373;28;20614;-57
2023/10/26 02:06:09;;;;;;;8.77;7.90;;;9.20;99.90;;;;;;5011622;28;20443;-58
2023/10/26 02:08:35;;;;;;;10.00;9.10;;;9.10;99.90;;;;;;5010343;28;20542;-57
2023/10/26 02:11:02;;;;;;;9.27;8.50;;;9.10;99.90;;;;;;5010397;28;21000;-56
2023/10/26 02:13:30;;;;;;;10.83;8.20;;;9.10;99.90;;;;;;5012175;28;20452;-57
2023/10/26 02:15:57;;;;;;;10.73;8.37;;;9.20;99.90;;;;;;5011566;28;20468;-58
2023/10/26 02:18:24;;;;;;;11.23;9.17;;;9.10;99.90;;;;;;5011674;28;20459;-56
2023/10/26 02:20:50;;;;;;;13.43;8.97;;;9.10;99.90;;;;;;5009667;28;20557;-57
2023/10/26 02:23:17;;;;;;;11.57;10.37;;;9.10;99.90;;;;;;5005855;28;20547;-56
2023/10/26 02:25:43;;;;;;;10.37;9.37;;;9.10;99.90;;;;;;5001960;28;20542;-55
2023/10/26 02:28:15;;;;;;;13.50;9.30;;;9.10;99.90;;;;;;5002808;28;20957;-56
2023/10/26 02:30:43;;;;;;;15.67;10.20;;;9.00;99.90;;;;;;5010630;28;20471;-56
2023/10/26 02:33:10;;;;;;;10.83;9.83;;;9.10;99.90;;;;;;4991992;28;20495;-56
2023/10/26 02:35:38;;;;;;;10.63;9.50;;;9.00;99.90;;;;;;4991794;28;20441;-56
2023/10/26 02:38:04;;;;;;;15.30;10.70;;;9.00;99.90;;;;;;5009415;28;20969;-56
2023/10/26 02:40:32;;;;;;;12.33;9.90;;;9.00;99.90;;;;;;5011616;28;20475;-57
2023/10/26 02:42:59;;;;;;;12.83;11.40;;;8.90;99.90;;;;;;5009186;28;20863;-56
2023/10/26 02:45:26;;;;;;;12.00;10.90;;;8.90;99.90;;;;;;5011429;28;20460;-57
2023/10/26 02:47:54;;;;;;;12.37;10.17;;;9.00;99.90;;;;;;5012422;28;20999;-56
2023/10/26 02:50:20;;;;;;;11.00;9.80;;;9.00;99.90;;;;;;5014681;28;20476;-56
2023/10/26 02:52:47;;;;;;;15.97;10.63;;;9.00;99.90;;;;;;5012759;28;20526;-56
2023/10/26 02:55:14;;;;;;;11.30;10.30;;;9.00;99.90;;;;;;5014000;28;20953;-56
2023/10/26 02:57:40;;;;;;;11.67;9.80;;;9.00;99.90;;;;;;5015099;28;21000;-55
2023/10/26 03:00:08;;;;;;;19.33;10.33;;;9.00;99.90;;;;;;5013456;28;20518;-56
2023/10/26 03:02:34;;;;;;;12.03;10.73;;;9.00;99.90;;;;;;5006035;28;20495;-57
2023/10/26 03:05:03;;;;;;;11.17;10.00;;;9.00;99.90;;;;;;5014821;28;20523;-57
2023/10/26 03:07:29;;;;;;;16.13;10.03;;;9.00;99.90;;;;;;5014526;28;20455;-56
2023/10/26 03:09:56;;;;;;;11.90;10.73;;;9.00;99.90;;;;;;5003807;28;20527;-56
2023/10/26 03:12:22;;;;;;;13.50;10.40;;;9.00;99.90;;;;;;4999748;28;20459;-56
2023/10/26 03:14:49;;;;;;;13.33;11.07;;;9.00;99.90;;;;;;5014890;28;20446;-57
2023/10/26 03:17:16;;;;;;;11.67;10.57;;;9.00;99.90;;;;;;5015225;28;20439;-57
2023/10/26 03:19:42;;;;;;;12.20;10.93;;;9.00;99.90;;;;;;5014313;28;20468;-57
2023/10/26 03:22:10;;;;;;;13.20;11.90;;;9.00;99.90;;;;;;5015474;28;20996;-57
2023/10/26 03:24:37;;;;;;;21.13;11.10;;;9.00;99.90;;;;;;5015876;28;20526;-57
2023/10/26 03:27:04;;;;;;;17.70;11.70;;;9.00;99.90;;;;;;5011918;28;20502;-57
2023/10/26 03:29:31;;;;;;;15.47;12.03;;;9.00;99.90;;;;;;5002332;28;20498;-57
2023/10/26 03:31:58;;;;;;;14.37;11.30;;;9.00;99.90;;;;;;5021106;28;20467;-57
2023/10/26 03:34:25;;;;;;;12.70;11.40;;;9.00;99.90;;;;;;5027310;28;20459;-57
2023/10/26 03:36:51;;;;;;;17.67;10.80;;;9.00;99.90;;;;;;5014942;28;20456;-57
2023/10/26 03:39:19;;;;;;;16.43;12.07;;;9.00;99.90;;;;;;5021771;28;20518;-57
2023/10/26 03:41:45;;;;;;;19.17;11.63;;;9.00;99.90;;;;;;5018822;28;20479;-57
2023/10/26 03:44:12;;;;;;;14.90;11.87;;;9.00;99.90;;;;;;5015405;28;20480;-57
2023/10/26 03:46:39;;;;;;;11.90;10.63;;;9.00;99.90;;;;;;4992787;28;20511;-57
2023/10/26 03:49:05;;;;;;;10.87;9.90;;;9.00;99.90;;;;;;5011713;28;20480;-57
2023/10/26 03:51:32;;;;;;;12.87;11.70;;;9.00;99.90;;;;;;5013577;28;20463;-57
2023/10/26 03:53:59;;;;;;;11.30;10.27;;;9.10;99.90;;;;;;5012208;28;20458;-57
2023/10/26 03:56:26;;;;;;;14.20;12.40;;;9.00;99.90;;;;;;5007582;28;20523;-56
2023/10/26 03:58:53;;;;;;;12.40;11.20;;;9.10;99.90;;;;;;5010240;28;20440;-57
2023/10/26 04:01:20;;;;;;;14.80;10.73;;;9.00;99.90;;;;;;5046578;22;20479;-60
2023/10/26 04:03:46;;;;;;;16.53;11.03;;;9.10;99.90;;;;;;5050692;28;20479;-60
2023/10/26 04:06:13;;;;;;;11.47;10.43;;;9.10;99.90;;;;;;5047521;28;20471;-59
2023/10/26 04:08:39;;;;;;;11.30;10.30;;;9.10;99.90;;;;;;5051033;28;20447;-60
2023/10/26 04:11:06;;;;;;;12.17;11.07;;;9.10;99.90;;;;;;5025558;28;20463;-61
2023/10/26 04:13:35;;;;;;;11.60;10.40;;;9.10;99.90;;;;;;5018049;28;20486;-59
2023/10/26 04:16:02;;;;;;;11.00;10.10;;;9.10;99.90;;;;;;5011828;28;20530;-60
2023/10/26 04:18:29;;;;;;;12.80;11.50;;;9.10;99.90;;;;;;5012916;28;20498;-59
2023/10/26 04:20:56;;;;;;;12.77;10.23;;;9.10;99.90;;;;;;5012019;28;20870;-59
2023/10/26 04:23:23;;;;;;;20.50;10.27;;;9.10;99.90;;;;;;5013017;28;20447;-59
2023/10/26 04:25:49;;;;;;;10.13;9.33;;;9.10;99.90;;;;;;5012499;28;20941;-59
2023/10/26 04:28:16;;;;;;;11.33;10.20;;;9.10;99.90;;;;;;5012844;28;20869;-59
2023/10/26 04:30:45;;;;;;;11.17;10.07;;;9.10;99.90;;;;;;5010250;28;20542;-59
2023/10/26 04:33:11;;;;;;;11.33;10.13;;;9.20;99.90;;;;;;5015698;28;20462;-61
2023/10/26 04:35:41;;;;;;;14.67;11.30;;;9.10;99.90;;;;;;5032018;28;20859;-59
2023/10/26 04:38:09;;;;;;;12.40;11.20;;;9.10;99.90;;;;;;5026831;28;20481;-60
2023/10/26 04:40:35;;;;;;;12.90;11.53;;;9.10;99.90;;;;;;5012712;28;20797;-60
2023/10/26 04:43:03;;;;;;;12.37;11.17;;;9.10;99.90;;;;;;5008986;28;20460;-60
2023/10/26 04:45:29;;;;;;;13.17;11.90;;;9.10;99.90;;;;;;5004754;28;20491;-59
2023/10/26 04:47:58;;;;;;;12.57;11.37;;;9.10;99.90;;;;;;5011490;28;20472;-59
2023/10/26 04:50:25;;;;;;;11.27;10.27;;;9.20;99.90;;;;;;5012417;28;20472;-59
2023/10/26 04:52:52;;;;;;;11.90;10.80;;;9.10;99.90;;;;;;5012453;28;20443;-59
2023/10/26 04:55:18;;;;;;;15.17;12.10;;;9.20;99.90;;;;;;5012220;28;20662;-59
2023/10/26 04:57:45;;;;;;;12.80;11.53;;;9.20;99.90;;;;;;5011426;28;20894;-60
2023/10/26 05:00:12;;;;;;;19.77;12.10;;;9.20;99.90;;;;;;5018590;28;20537;-60
2023/10/26 05:02:41;;;;;;;13.53;12.23;;;9.20;99.90;;;;;;5026902;28;20443;-60
2023/10/26 05:05:09;;;;;;;14.33;11.30;;;9.20;99.90;;;;;;5005178;28;20543;-60
2023/10/26 05:07:36;;;;;;;12.53;11.33;;;9.20;99.90;;;;;;4992449;28;20513;-60
2023/10/26 05:10:03;;;;;;;13.13;11.70;;;9.20;99.90;;;;;;4992406;28;20499;-60
2023/10/26 05:12:30;;;;;;;13.60;11.57;;;9.20;99.90;;;;;;5006067;28;20517;-60
2023/10/26 05:14:56;;;;;;;11.90;10.70;;;9.20;99.90;;;;;;5012212;28;20435;-59
2023/10/26 05:17:23;;;;;;;11.60;10.43;;;9.20;99.90;;;;;;5013019;28;20459;-58
2023/10/26 05:19:50;;;;;;;12.53;10.27;;;9.20;99.90;;;;;;5023385;28;20547;-59
2023/10/26 05:22:19;;;;;;;10.57;9.47;;;9.20;99.90;;;;;;5010994;28;20857;-60
2023/10/26 05:24:46;;;;;;;11.20;10.10;;;9.20;99.90;;;;;;5011564;28;20883;-60
2023/10/26 05:27:12;;;;;;;10.53;9.53;;;9.20;99.90;;;;;;5011058;28;20534;-60
2023/10/26 05:29:39;;;;;;;10.00;9.10;;;9.20;99.90;;;;;;5012129;28;20439;-59
2023/10/26 05:32:06;;;;;;;11.17;9.90;;;9.20;99.90;;;;;;5011943;28;20491;-60
2023/10/26 05:34:32;;;;;;;10.97;9.87;;;9.30;99.90;;;;;;5018023;28;20502;-60
2023/10/26 05:36:59;;;;;;;11.17;10.17;;;9.30;99.90;;;;;;5028942;28;20495;-60
2023/10/26 05:39:27;;;;;;;10.87;9.87;;;9.20;99.90;;;;;;5015160;28;20463;-59
2023/10/26 05:41:53;;;;;;;11.10;10.00;;;9.20;99.90;;;;;;5009944;28;20569;-60
2023/10/26 05:44:20;;;;;;;11.33;9.90;;;9.30;99.90;;;;;;5023205;28;20478;-60
2023/10/26 05:46:46;;;;;;;12.07;10.50;;;9.30;99.90;;;;;;5016468;28;20521;-58
2023/10/26 05:49:13;;;;;;;12.40;11.30;;;9.30;99.90;;;;;;5011143;28;20517;-59
2023/10/26 05:51:39;;;;;;;15.10;13.50;;;9.30;99.90;;;;;;5011339;28;20518;-61
2023/10/26 05:54:06;;;;;;;11.57;10.53;;;9.30;99.90;;;;;;5010576;28;20819;-60
2023/10/26 05:56:34;;;;;;;20.07;17.50;;;9.30;99.90;;;;;;5011904;28;20498;-60
2023/10/26 05:59:01;;;;;;;23.40;20.40;;;9.30;99.90;;;;;;5011769;28;20506;-60
2023/10/26 06:01:27;;;;;;;30.33;17.87;;;9.30;99.90;;;;;;5015405;28;20494;-60
2023/10/26 06:03:54;;;;;;;13.37;11.77;;;9.30;99.90;;;;;;5013485;28;20471;-60
2023/10/26 06:06:20;;;;;;;14.50;12.83;;;9.30;99.90;;;;;;5011228;28;20947;-60
2023/10/26 06:08:47;;;;;;;12.50;11.07;;;9.30;99.90;;;;;;5010507;28;20464;-60
2023/10/26 06:11:15;;;;;;;12.10;11.00;;;9.30;99.90;;;;;;5011388;28;20463;-60
2023/10/26 06:13:43;;;;;;;14.07;12.67;;;9.30;99.90;;;;;;5011369;28;20451;-63
2023/10/26 06:16:12;;;;;;;11.87;10.67;;;9.30;99.90;;;;;;5014824;28;20455;-60
2023/10/26 06:18:39;;;;;;;12.97;11.33;;;9.30;99.90;;;;;;5020254;28;20543;-61
2023/10/26 06:21:07;;;;;;;11.60;10.40;;;9.30;99.90;;;;;;5014510;28;20487;-59
2023/10/26 06:23:34;;;;;;;14.53;10.40;;;9.30;99.90;;;;;;5014562;28;20546;-59
2023/10/26 06:26:01;;;;;;;16.10;10.37;;;9.30;99.90;;;;;;5015017;28;20515;-59
2023/10/26 06:28:29;;;;;;;12.73;10.43;;;9.30;99.90;;;;;;5015171;28;20447;-59
2023/10/26 06:31:07;;;;;;;11.40;10.20;;;9.30;99.90;;;;;;5014714;28;21049;-60
2023/10/26 06:33:34;;;;;;;11.13;10.03;;;9.30;99.90;;;;;;5017228;28;20431;-60
2023/10/26 06:36:01;;;;;;;11.33;9.30;;;9.30;99.90;;;;;;5026221;28;20517;-59
2023/10/26 06:38:27;;;;;;;12.93;11.60;;;9.30;99.90;;;;;;5014800;28;20499;-60
2023/10/26 06:40:54;;;;;;;12.20;10.90;;;9.40;99.90;;;;;;5015020;28;20509;-59
2023/10/26 06:43:21;;;;;;;11.50;10.30;;;9.40;99.90;;;;;;5012924;28;20510;-58
2023/10/26 06:45:48;;;;;;;12.70;11.40;;;9.40;99.90;;;;;;5022354;28;20486;-59
2023/10/26 06:48:16;;;;;;;13.00;10.30;;;9.40;99.90;;;;;;5033495;28;20435;-59
2023/10/26 06:50:42;;;;;;;12.50;11.20;;;9.40;99.90;;;;;;5015942;28;20494;-59
2023/10/26 06:53:10;;;;;;;11.70;10.03;;;9.40;99.90;;;;;;5016148;28;20861;-59
2023/10/26 06:55:36;;;;;;;12.27;10.50;;;9.40;99.90;;;;;;5014579;28;20744;-59
2023/10/26 06:58:04;;;;;;;13.83;12.30;;;9.40;99.90;;;;;;5014598;28;20448;-60
2023/10/26 07:00:31;;;;;;;12.93;11.63;;;9.40;99.90;;;;;;5018224;28;20590;-59
2023/10/26 07:02:58;;;;;;;11.70;10.50;;;9.40;99.90;;;;;;5028100;28;20962;-59
2023/10/26 07:05:27;;;;;;;14.27;11.80;;;9.40;99.90;;;;;;5015672;28;20542;-59
2023/10/26 07:07:54;;;;;;;12.63;11.37;;;9.40;99.90;;;;;;5011091;28;20447;-60
2023/10/26 07:10:21;;;;;;;12.33;11.23;;;9.40;99.90;;;;;;5014244;28;20475;-60
2023/10/26 07:12:48;;;;;;;13.30;11.90;;;9.40;99.90;;;;;;5014215;28;20443;-60
2023/10/26 07:15:15;;;;;;;12.67;11.47;;;9.40;99.90;;;;;;5014604;28;20452;-60
2023/10/26 07:17:41;;;;;;;12.40;11.23;;;9.40;99.90;;;;;;5012919;28;20474;-60
2023/10/26 07:20:09;;;;;;;13.17;11.87;;;9.40;99.90;;;;;;5013122;28;20557;-59
2023/10/26 07:22:38;;;;;;;12.23;10.93;;;9.40;99.90;;;;;;4999268;28;20916;-60
2023/10/26 07:25:06;;;;;;;13.20;11.90;;;9.30;99.90;;;;;;4994146;28;20575;-60
2023/10/26 07:27:32;;;;;;;14.00;11.80;;;9.40;99.90;;;;;;4993743;28;20473;-60
2023/10/26 07:30:00;;;;;;;13.43;12.10;;;9.40;99.90;;;;;;4994325;28;20448;-60
2023/10/26 07:32:26;;;;;;;13.90;12.40;;;9.40;99.90;;;;;;4997065;28;20958;-60
2023/10/26 07:34:54;;;;;;;12.80;11.60;;;9.40;99.90;;;;;;5010565;28;20439;-60
2023/10/26 07:37:20;;;;;;;19.07;11.77;;;9.40;99.90;;;;;;5014740;28;20523;-60
2023/10/26 07:39:48;;;;;;;13.73;12.47;;;9.40;99.90;;;;;;5013130;28;20887;-60
2023/10/26 07:42:15;;;;;;;13.83;12.40;;;9.40;99.90;;;;;;5013875;28;20513;-60
2023/10/26 07:44:41;;;;;;;14.03;11.80;;;9.50;99.90;;;;;;5009940;28;21092;-60
2023/10/26 07:47:08;;;;;;;16.83;10.80;;;9.50;99.90;;;;;;5012177;28;20506;-59
2023/10/26 07:49:35;;;;;;;14.17;11.23;;;9.50;99.90;;;;;;5013601;28;20531;-59
2023/10/26 07:52:01;;;;;;;13.83;10.70;;;9.50;99.90;;;;;;5009510;28;21392;-63
2023/10/26 07:54:28;;;;;;;18.70;11.90;;;9.60;99.90;;;;;;5010626;28;20570;-63
2023/10/26 07:56:56;;;;;;;11.03;9.93;;;9.60;99.90;;;;;;5021011;28;20858;-63
2023/10/26 07:59:23;;;;;;;12.90;11.70;;;9.60;99.90;;;;;;5013625;28;20539;-57
2023/10/26 08:01:49;;;;;;;12.00;10.80;;;9.60;99.90;;;;;;5013215;28;20522;-58
2023/10/26 08:04:16;;;;;;;10.90;9.97;;;9.60;99.90;;;;;;5010261;28;20467;-58
2023/10/26 08:06:43;;;;;;;13.30;11.27;;;9.60;99.90;;;;;;5021464;28;20494;-58
2023/10/26 08:09:09;;;;;;;12.00;11.00;;;9.60;99.90;;;;;;5010011;28;20460;-57
2023/10/26 08:11:36;;;;;;;12.80;11.17;;;9.70;99.90;;;;;;5012404;28;20538;-58
2023/10/26 08:14:05;;;;;;;14.60;11.00;;;9.70;99.90;;;;;;5013155;28;20444;-57
2023/10/26 08:16:31;;;;;;;11.47;10.47;;;9.70;99.90;;;;;;5012878;28;20976;-58
2023/10/26 08:18:58;;;;;;;12.80;11.60;;;9.70;99.90;;;;;;5012405;28;20732;-57
2023/10/26 08:21:25;;;;;;;13.17;11.67;;;9.70;99.90;;;;;;5012923;28;20554;-56
2023/10/26 08:23:51;;;;;;;11.47;10.33;;;9.80;99.90;;;;;;5011658;28;20949;-57
2023/10/26 08:26:18;;;;;;;11.33;10.23;;;9.80;99.90;;;;;;5013628;28;20479;-57
2023/10/26 08:28:45;;;;;;;11.70;10.60;;;9.80;99.90;;;;;;5027941;28;20865;-56
2023/10/26 08:31:13;;;;;;;11.13;10.13;;;9.80;99.90;;;;;;5034575;28;20481;-58
2023/10/26 08:33:39;;;;;;;12.00;10.70;;;9.80;99.90;;;;;;5013189;28;20478;-58
2023/10/26 08:36:06;;;;;;;12.30;11.10;;;9.90;99.90;;;;;;5007910;28;20557;-58
2023/10/26 08:38:33;;;;;;;12.13;10.90;;;9.90;99.90;;;;;;5005342;28;20930;-56
2023/10/26 08:41:00;;;;;;;12.60;11.40;;;9.90;99.90;;;;;;5011511;28;20487;-57
2023/10/26 08:43:29;;;;;;;12.07;10.83;;;9.90;99.90;;;;;;5011031;28;20510;-62
2023/10/26 08:45:59;;;;;;;12.00;10.80;;;9.90;99.90;;;;;;5027589;28;20486;-57
2023/10/26 08:48:30;;;;;;;12.77;11.47;;;9.90;99.90;;;;;;5009768;28;20842;-57
2023/10/26 08:50:57;;;;;;;11.43;10.33;;;9.90;99.90;;;;;;5019282;28;20530;-56
2023/10/26 08:53:23;;;;;;;12.03;10.83;;;9.90;99.90;;;;;;5012199;28;20448;-57
2023/10/26 08:55:55;;;;;;;12.60;11.40;;;9.90;99.90;;;;;;5012131;28;21007;-56
2023/10/26 08:58:21;;;;;;;13.00;11.60;;;10.00;99.90;;;;;;5012376;28;20448;-57
2023/10/26 09:00:51;;;;;;;11.67;10.47;;;10.00;99.90;;;;;;5011138;28;20495;-57
2023/10/26 09:03:18;;;;;;;12.67;10.87;;;10.00;99.90;;;;;;5009444;28;20963;-57
2023/10/26 09:05:55;;;;;;;12.07;10.87;;;10.00;99.90;;;;;;5026161;28;20509;-57
2023/10/26 09:08:23;;;;;;;13.00;10.90;;;10.00;99.90;;;;;;5027380;28;20501;-59
2023/10/26 09:10:51;;;;;;;12.07;10.10;;;10.10;99.90;;;;;;5010754;28;20570;-57
2023/10/26 09:13:24;;;;;;;12.13;10.93;;;10.20;99.90;;;;;;5020581;28;20443;-58
2023/10/26 09:15:52;;;;;;;11.43;10.23;;;10.20;99.90;;;;;;5012040;28;20949;-57
2023/10/26 09:18:20;;;;;;;13.27;10.70;;;10.20;99.90;;;;;;5010799;28;20464;-57
2023/10/26 09:21:04;;;;;;;11.27;10.07;;;10.20;99.90;;;;;;5009728;28;20487;-57
2023/10/26 09:23:32;;;;;;;11.83;10.63;;;10.20;99.90;;;;;;5019785;28;20864;-57
2023/10/26 09:25:59;;;;;;;12.60;10.63;;;10.20;99.90;;;;;;5007636;28;20550;-57
2023/10/26 09:28:25;;;;;;;12.40;11.20;;;10.30;99.90;;;;;;5011495;28;20467;-57
2023/10/26 09:30:57;;;;;;;11.60;10.50;;;10.40;99.90;;;;;;5030914;28;20574;-57
2023/10/26 09:33:24;;;;;;;10.33;9.23;;;10.40;99.90;;;;;;5024935;28;20901;-56
2023/10/26 09:35:52;;;;;;;15.90;10.63;;;10.40;99.90;;;;;;5011954;28;20440;-66
2023/10/26 09:38:34;;;;;;;13.17;11.07;;;10.50;99.90;;;;;;5012010;28;20452;-65
2023/10/26 09:41:02;;;;;;;14.80;11.20;;;10.50;99.90;;;;;;5009290;28;20484;-64
2023/10/26 09:43:29;;;;;;;13.90;11.63;;;10.50;99.90;;;;;;5002734;28;20582;-65
2023/10/26 09:46:03;;;;;;;11.53;10.43;;;10.50;99.90;;;;;;5008797;28;20516;-64
2023/10/26 09:48:30;;;;;;;10.97;9.97;;;10.50;99.90;;;;;;5019937;28;20550;-63
2023/10/26 09:51:00;;;;;;;10.80;9.70;;;10.50;99.90;;;;;;5013456;28;20875;-63
2023/10/26 09:53:32;;;;;;;12.93;11.53;;;10.60;99.90;;;;;;5006677;28;20451;-63
2023/10/26 09:56:00;;;;;;;12.17;10.03;;;10.60;99.90;;;;;;5015636;28;20899;-64
2023/10/26 09:58:31;;;;;;;12.43;11.20;;;10.70;99.90;;;;;;5016203;28;20448;-63
2023/10/26 10:00:58;;;;;;;11.27;10.27;;;10.70;99.90;;;;;;5029431;22;20499;-56
2023/10/26 10:03:26;;;;;;;11.53;9.13;;;10.60;99.90;;;;;;5015116;28;20489;-54
2023/10/26 10:05:53;;;;;;;11.80;10.70;;;10.70;99.90;;;;;;5012195;28;20482;-54
2023/10/26 10:08:53;;;;;;;10.50;9.50;;;10.70;99.90;;;;;;5014155;28;20903;-55
2023/10/26 10:11:21;;;;;;;10.50;9.53;;;10.70;99.90;;;;;;5015143;28;21267;-54
2023/10/26 10:13:48;;;;;;;11.93;10.13;;;10.70;99.90;;;;;;5035286;28;20439;-54
2023/10/26 10:16:51;;;;;;;11.10;9.90;;;10.70;99.90;;;;;;5035159;28;20531;-55
2023/10/26 10:19:19;;;;;;;10.37;9.30;;;10.80;99.90;;;;;;5017380;28;20497;-55
2023/10/26 10:21:47;;;;;;;23.53;9.33;;;10.80;99.90;;;;;;5021668;28;20463;-56
2023/10/26 10:24:50;;;;;;;10.67;9.70;;;10.90;99.90;;;;;;5020924;28;20447;-54
2023/10/26 10:27:18;;;;;;;10.47;9.43;;;11.00;99.90;;;;;;5014667;28;20487;-55
2023/10/26 10:29:45;;;;;;;10.63;9.53;;;11.00;99.90;;;;;;5034443;28;20439;-55
2023/10/26 10:32:12;;;;;;;16.00;9.33;;;11.10;99.90;;;;;;5040185;28;20493;-55
2023/10/26 10:34:44;;;;;;;10.60;9.50;;;11.10;99.90;;;;;;5010223;28;20432;-54
2023/10/26 10:37:15;;;;;;;10.93;9.93;;;11.10;99.90;;;;;;5016718;28;20443;-55
2023/10/26 10:40:10;;;;;;;10.30;9.30;;;11.00;99.90;;;;;;5015357;28;20432;-55
2023/10/26 10:42:38;;;;;;;11.63;10.43;;;11.00;99.90;;;;;;5016095;28;20478;-54
2023/10/26 10:45:06;;;;;;;11.03;10.00;;;11.00;99.90;;;;;;5021773;28;20516;-54
2023/10/26 10:47:33;;;;;;;11.53;10.37;;;11.00;99.90;;;;;;5014141;28;20483;-54
2023/10/26 10:50:16;;;;;;;11.93;10.10;;;11.10;99.90;;;;;;5013776;28;20812;-54
2023/10/26 10:52:43;;;;;;;11.53;10.30;;;11.20;99.90;;;;;;5012938;28;20790;-55
2023/10/26 10:55:10;;;;;;;10.60;9.60;;;11.20;99.90;;;;;;5021460;28;20882;-53
2023/10/26 11:00:45;;;;;;;10.90;8.50;;;11.30;99.90;;;;;;5088649;28;20568;-54
2023/10/26 11:03:18;;;;;;;9.10;8.30;;;11.40;99.90;;;;;;5068357;28;20543;-55
2023/10/26 11:05:45;;;;;;;9.43;8.37;;;11.30;99.90;;;;;;5055048;28;20496;-55
2023/10/26 11:08:11;;;;;;;9.50;8.50;;;11.30;99.90;;;;;;5049343;28;20457;-56
2023/10/26 11:10:38;;;;;;;10.53;9.27;;;11.30;99.90;;;;;;5055158;28;20519;-56
2023/10/26 11:13:05;;;;;;;10.60;8.90;;;11.20;99.90;;;;;;5063232;28;20923;-56
2023/10/26 11:15:33;;;;;;;8.30;7.50;;;11.10;99.90;;;;;;5069838;28;20443;-55
2023/10/26 11:18:00;;;;;;;12.00;9.30;;;11.00;99.90;;;;;;5069066;28;20461;-55
2023/10/26 11:20:34;;;;;;;10.00;9.00;;;10.90;99.90;;;;;;5048669;28;20482;-56
2023/10/26 11:23:01;;;;;;;10.63;7.40;;;10.90;99.90;;;;;;5049231;28;20452;-56
2023/10/26 11:25:28;;;;;;;12.13;8.40;;;10.90;99.90;;;;;;5060830;28;20468;-56
2023/10/26 11:27:54;;;;;;;14.00;8.43;;;10.90;99.90;;;;;;5067914;28;20534;-55
2023/10/26 11:30:21;;;;;;;14.07;8.17;;;10.90;99.90;;;;;;5057045;28;20518;-55
2023/10/26 11:32:49;;;;;;;12.97;8.30;;;10.90;99.90;;;;;;5062788;28;20442;-55
2023/10/26 11:35:16;;;;;;;8.57;7.40;;;10.80;99.90;;;;;;5048701;28;20799;-55
2023/10/26 11:37:44;;;;;;;9.17;7.97;;;10.80;99.90;;;;;;5049231;28;20947;-56
2023/10/26 11:40:13;;;;;;;14.30;8.23;;;10.80;99.90;;;;;;5048783;28;21108;-56
2023/10/26 11:42:50;;;;;;;10.13;7.40;;;10.80;99.90;;;;;;5049879;28;20987;-56
2023/10/26 11:45:18;;;;;;;16.93;7.73;;;10.80;99.90;;;;;;5062420;28;20539;-56
2023/10/26 11:47:48;;;;;;;9.03;7.40;;;10.80;99.90;;;;;;5067915;28;20433;-55
2023/10/26 11:50:20;;;;;;;8.10;6.90;;;10.80;99.90;;;;;;5068307;28;20448;-55
2023/10/26 11:52:47;;;;;;;9.37;7.60;;;10.80;99.90;;;;;;5068109;28;21091;-55
2023/10/26 11:55:14;;;;;;;10.33;7.07;;;10.90;99.90;;;;;;5078741;28;20533;-55
2023/10/26 11:57:41;;;;;;;11.20;8.17;;;10.90;99.90;;;;;;5066543;28;20477;-56
2023/10/26 12:00:08;;;;;;;8.30;7.13;;;10.90;99.90;;;;;;5066396;28;20524;-55
2023/10/26 12:02:35;;;;;;;10.30;7.80;;;10.90;99.90;;;;;;5068240;28;20453;-56
2023/10/26 12:05:03;;;;;;;8.60;7.70;;;10.90;99.90;;;;;;5066936;28;20543;-56
2023/10/26 12:07:30;;;;;;;8.90;8.00;;;10.90;99.90;;;;;;5060351;28;20440;-56
2023/10/26 12:09:57;;;;;;;16.30;8.20;;;10.90;99.90;;;;;;5065221;28;20442;-56
2023/10/26 12:12:24;;;;;;;12.73;8.43;;;11.00;99.90;;;;;;5066044;28;21075;-56
2023/10/26 12:14:51;;;;;;;9.43;8.00;;;10.90;99.90;;;;;;5049287;28;20443;-55
2023/10/26 12:17:18;;;;;;;9.97;7.53;;;10.90;99.90;;;;;;5052819;28;20442;-55
2023/10/26 12:19:44;;;;;;;10.40;7.43;;;10.90;99.90;;;;;;5034637;28;20536;-55
2023/10/26 12:22:12;;;;;;;14.43;9.73;;;10.90;99.90;;;;;;5034965;28;20486;-56
2023/10/26 12:24:39;;;;;;;8.10;7.23;;;10.90;99.90;;;;;;5034767;28;20829;-56
2023/10/26 12:27:06;;;;;;;13.37;10.80;;;10.90;99.90;;;;;;5065325;28;20496;-56
2023/10/26 12:29:32;;;;;;;12.50;9.83;;;10.80;99.90;;;;;;5063689;28;20507;-57
2023/10/26 12:31:59;;;;;;;13.97;10.23;;;10.80;99.90;;;;;;5053697;28;20511;-56
2023/10/26 12:34:25;;;;;;;16.67;12.27;;;10.80;99.90;;;;;;5054689;28;20499;-56
2023/10/26 12:36:52;;;;;;;13.93;11.00;;;10.80;99.90;;;;;;5054267;28;20480;-56
2023/10/26 12:39:20;;;;;;;11.97;8.90;;;10.80;99.90;;;;;;5053731;28;20474;-56
2023/10/26 12:41:46;;;;;;;13.83;8.00;;;10.80;99.90;;;;;;5054123;28;20462;-55
2023/10/26 12:44:13;;;;;;;10.83;8.47;;;10.80;99.90;;;;;;5062341;28;20497;-56
2023/10/26 12:46:40;;;;;;;12.20;8.60;;;10.80;99.90;;;;;;5052848;28;20462;-55